Time;durP1;ratioP1;P1;durP2;ratioP2;P2;SDS_P1;SDS_P2;PMS_P1;PMS_P2;Temp;Humidity;BMP_temperature;BMP_pressure;BME280_temperature;BME280_humidity;BME280_pressure;Samples;Min_cycle;Max_cycle;Signal;HPM_P1;HPM_P2
2023/05/28 00:01:28;;;;;;;9.65;4.57;;;;;;;18.32;48.55;100503.53;5061838;28;20050;-66
2023/05/28 00:03:53;;;;;;;7.57;4.50;;;;;;;18.34;48.22;100515.91;5062629;28;20036;-67
2023/05/28 00:06:19;;;;;;;10.15;4.93;;;;;;;18.33;48.50;100511.50;5061608;28;20070;-66
2023/05/28 00:08:44;;;;;;;7.47;3.88;;;;;;;18.30;48.61;100503.72;5064310;28;20037;-67
2023/05/28 00:11:10;;;;;;;10.15;4.18;;;;;;;18.30;48.39;100513.72;5063979;28;20029;-66
2023/05/28 00:13:35;;;;;;;8.65;4.80;;;;;;;18.27;48.44;100506.78;5076261;28;20043;-66
2023/05/28 00:16:00;;;;;;;8.50;4.30;;;;;;;18.21;48.83;100499.34;5073500;28;20032;-66
2023/05/28 00:18:28;;;;;;;8.68;4.70;;;;;;;18.16;48.82;100496.34;5106843;28;20053;-65
2023/05/28 00:20:53;;;;;;;9.02;3.88;;;;;;;18.21;48.99;100499.34;5108648;28;20012;-65
2023/05/28 00:23:19;;;;;;;9.45;4.30;;;;;;;18.21;49.18;100512.94;5090069;28;20024;-67
2023/05/28 00:25:44;;;;;;;11.68;4.40;;;;;;;18.18;49.34;100501.59;5090928;28;20041;-65
2023/05/28 00:28:10;;;;;;;7.50;4.60;;;;;;;18.17;49.01;100508.91;5082715;28;20052;-66
2023/05/28 00:30:35;;;;;;;8.27;4.13;;;;;;;18.13;49.43;100495.84;5102709;28;20023;-66
2023/05/28 00:33:01;;;;;;;9.23;4.18;;;;;;;18.12;49.55;100503.13;5086121;28;20107;-75
2023/05/28 00:35:26;;;;;;;8.20;4.60;;;;;;;18.10;49.58;100494.34;5074915;28;20086;-76
2023/05/28 00:37:54;;;;;;;8.82;4.55;;;;;;;18.09;49.90;100496.22;5076378;28;20035;-76
2023/05/28 00:40:20;;;;;;;13.68;4.93;;;;;;;18.03;49.96;100475.19;5075514;28;20073;-75
2023/05/28 00:42:45;;;;;;;9.25;4.70;;;;;;;18.05;50.03;100489.44;5064825;28;20442;-75
2023/05/28 00:45:11;;;;;;;9.13;5.00;;;;;;;18.01;50.03;100482.69;5056023;28;20636;-75
2023/05/28 00:47:39;;;;;;;10.70;4.50;;;;;;;18.02;50.37;100478.94;5055810;28;20108;-75
2023/05/28 00:50:06;;;;;;;11.63;4.55;;;;;;;17.98;50.27;100482.19;5055120;28;20025;-75
2023/05/28 00:52:33;;;;;;;7.85;4.60;;;;;;;17.95;50.68;100471.69;5055204;28;20487;-76
2023/05/28 00:54:58;;;;;;;8.65;4.43;;;;;;;17.94;50.85;100472.72;5054919;28;20039;-75
2023/05/28 00:57:24;;;;;;;10.15;4.55;;;;;;;17.93;51.08;100474.59;5054156;28;20021;-75
2023/05/28 00:59:51;;;;;;;8.90;4.60;;;;;;;17.88;51.15;100463.44;5054279;28;20067;-66
2023/05/28 01:02:16;;;;;;;10.68;5.10;;;;;;;17.88;51.05;100460.72;5051514;28;20063;-66
2023/05/28 01:04:42;;;;;;;11.05;4.85;;;;;;;17.88;51.04;100465.28;5051609;28;20060;-66
2023/05/28 01:07:08;;;;;;;10.80;4.22;;;;;;;17.89;51.36;100467.81;5051155;28;20043;-66
2023/05/28 01:09:34;;;;;;;8.15;4.47;;;;;;;17.88;51.09;100476.16;5051335;28;20045;-67
2023/05/28 01:12:00;;;;;;;11.80;4.65;;;;;;;17.79;51.24;100464.50;5049638;28;20379;-66
2023/05/28 01:14:26;;;;;;;10.35;4.35;;;;;;;17.85;51.50;100471.06;5051127;28;20051;-66
2023/05/28 01:16:52;;;;;;;10.63;4.88;;;;;;;17.72;51.61;100454.53;5050718;28;20037;-66
2023/05/28 01:19:21;;;;;;;7.88;3.92;;;;;;;17.82;51.69;100468.72;5070443;28;20036;-66
2023/05/28 01:21:55;;;;;;;10.05;4.93;;;;;;;17.75;51.51;100454.16;5071050;28;20028;-66
2023/05/28 01:24:22;;;;;;;8.27;4.03;;;;;;;17.76;51.87;100461.28;5069320;28;20025;-66
2023/05/28 01:26:50;;;;;;;10.98;4.95;;;;;;;17.70;52.11;100456.56;5071012;28;20496;-66
2023/05/28 01:29:16;;;;;;;9.55;4.57;;;;;;;17.63;51.98;100445.56;5053752;28;20089;-66
2023/05/28 01:31:42;;;;;;;8.75;4.85;;;;;;;17.65;52.35;100445.41;5051045;28;20025;-66
2023/05/28 01:34:09;;;;;;;10.38;4.25;;;;;;;17.60;52.14;100439.66;5050398;28;20087;-66
2023/05/28 01:36:38;;;;;;;11.73;4.70;;;;;;;17.64;52.15;100447.25;5050812;28;20032;-66
2023/05/28 01:39:05;;;;;;;9.35;4.60;;;;;;;17.59;52.19;100438.81;5050706;28;20033;-66
2023/05/28 01:41:31;;;;;;;9.70;4.10;;;;;;;17.59;52.27;100448.81;5050750;28;20459;-67
2023/05/28 01:43:58;;;;;;;10.82;3.90;;;;;;;17.47;52.69;100431.22;5050439;28;20049;-67
2023/05/28 01:46:25;;;;;;;13.32;5.05;;;;;;;17.44;52.67;100431.56;5050666;28;20147;-67
2023/05/28 01:48:51;;;;;;;9.75;4.50;;;;;;;17.43;53.04;100433.47;5050665;28;20025;-67
2023/05/28 01:51:26;;;;;;;9.45;4.30;;;;;;;17.32;53.11;100416.69;5050638;28;20100;-66
2023/05/28 01:53:52;;;;;;;6.60;4.00;;;;;;;17.36;53.15;100437.88;5050279;28;20013;-66
2023/05/28 01:56:18;;;;;;;12.77;4.70;;;;;;;17.32;53.52;100441.94;5050545;28;20031;-66
2023/05/28 01:58:43;;;;;;;10.55;4.60;;;;;;;17.32;53.42;100441.94;5050393;28;20116;-67
2023/05/28 02:01:15;;;;;;;9.27;4.13;;;;;;;17.31;53.46;100442.97;5048745;28;20783;-66
2023/05/28 02:03:41;;;;;;;8.18;4.45;;;;;;;17.31;53.59;100442.09;5050336;28;20491;-67
2023/05/28 02:06:06;;;;;;;12.77;4.35;;;;;;;17.25;53.87;100435.53;5050119;28;20036;-66
2023/05/28 02:08:32;;;;;;;10.20;4.57;;;;;;;17.21;54.00;100433.31;5050132;28;20053;-66
2023/05/28 02:10:57;;;;;;;9.07;4.15;;;;;;;17.21;54.00;100441.47;5049702;28;20040;-66
2023/05/28 02:13:23;;;;;;;8.07;3.95;;;;;;;17.15;54.34;100453.84;5049748;28;20028;-66
2023/05/28 02:15:48;;;;;;;12.38;5.50;;;;;;;17.14;54.60;100437.75;5049969;28;20047;-66
2023/05/28 02:18:14;;;;;;;9.82;4.05;;;;;;;17.12;54.59;100458.78;5049769;28;20063;-66
2023/05/28 02:20:42;;;;;;;9.30;3.75;;;;;;;17.12;54.77;100450.66;5050304;28;20104;-66
2023/05/28 02:23:08;;;;;;;8.32;4.03;;;;;;;17.03;54.78;100443.56;5056850;28;20363;-66
2023/05/28 02:25:33;;;;;;;8.85;3.90;;;;;;;17.08;55.00;100457.41;5061663;28;20040;-66
2023/05/28 02:27:59;;;;;;;10.52;4.25;;;;;;;17.10;54.70;100455.41;5060161;28;20463;-66
2023/05/28 02:30:24;;;;;;;11.15;4.57;;;;;;;16.95;54.95;100435.44;5060200;28;20025;-67
2023/05/28 02:32:50;;;;;;;11.38;4.68;;;;;;;17.02;54.98;100458.97;5059816;28;20471;-66
2023/05/28 02:35:15;;;;;;;10.40;4.65;;;;;;;16.98;55.46;100459.47;5058943;28;20032;-66
2023/05/28 02:37:41;;;;;;;9.20;4.28;;;;;;;16.94;55.42;100459.00;5060181;28;20045;-66
2023/05/28 02:40:09;;;;;;;7.43;3.50;;;;;;;16.93;55.74;100457.28;5061592;28;20033;-67
2023/05/28 02:42:35;;;;;;;10.40;3.90;;;;;;;16.93;55.78;100453.75;5062839;28;20040;-67
2023/05/28 02:45:00;;;;;;;12.50;4.85;;;;;;;16.85;55.89;100449.16;5059197;28;20025;-66
2023/05/28 02:47:26;;;;;;;8.55;3.88;;;;;;;16.86;56.03;100448.16;5060414;28;20040;-66
2023/05/28 02:49:51;;;;;;;11.70;4.13;;;;;;;16.82;55.80;100443.25;5074563;28;20029;-67
2023/05/28 02:52:17;;;;;;;12.55;5.07;;;;;;;16.83;55.96;100439.53;5060276;28;20375;-67
2023/05/28 02:54:42;;;;;;;7.82;4.03;;;;;;;16.85;56.13;100441.03;5059053;28;20017;-66
2023/05/28 02:57:08;;;;;;;13.55;4.35;;;;;;;16.84;55.89;100443.94;5059289;28;20706;-66
2023/05/28 02:59:33;;;;;;;12.02;4.25;;;;;;;16.83;55.81;100437.66;5057451;28;20029;-66
2023/05/28 03:02:00;;;;;;;7.85;3.90;;;;;;;16.84;56.16;100439.38;5058387;28;20032;-66
2023/05/28 03:04:25;;;;;;;7.35;4.22;;;;;;;16.83;56.22;100440.34;5058465;28;20357;-66
2023/05/28 03:06:50;;;;;;;10.00;4.07;;;;;;;16.78;56.40;100442.75;5056164;28;20107;-67
2023/05/28 03:09:16;;;;;;;8.75;3.65;;;;;;;16.80;56.18;100437.16;5049425;28;20033;-66
2023/05/28 03:11:42;;;;;;;10.85;4.00;;;;;;;16.78;56.46;100447.31;5049477;28;20458;-66
2023/05/28 03:14:07;;;;;;;7.05;3.78;;;;;;;16.78;56.25;100447.31;5049248;28;20020;-66
2023/05/28 03:16:36;;;;;;;10.30;4.15;;;;;;;16.73;56.43;100426.16;5052693;28;21295;-67
2023/05/28 03:19:01;;;;;;;11.77;3.80;;;;;;;16.81;56.83;100453.25;5069231;28;20099;-66
2023/05/28 03:21:27;;;;;;;6.15;3.67;;;;;;;16.81;56.54;100458.66;5069423;28;20046;-66
2023/05/28 03:23:52;;;;;;;8.63;3.95;;;;;;;16.80;57.03;100461.56;5069109;28;20047;-66
2023/05/28 03:26:18;;;;;;;9.65;4.57;;;;;;;16.77;57.02;100451.88;5069145;28;20043;-66
2023/05/28 03:28:43;;;;;;;8.50;3.88;;;;;;;16.78;56.78;100455.44;5057562;28;20037;-66
2023/05/28 03:31:09;;;;;;;11.90;4.15;;;;;;;16.72;57.17;100450.69;5048992;28;20039;-66
2023/05/28 03:33:34;;;;;;;7.65;3.88;;;;;;;16.77;57.55;100461.88;5049104;28;20036;-66
2023/05/28 03:36:00;;;;;;;10.27;4.47;;;;;;;16.74;57.57;100462.22;5047569;28;20028;-66
2023/05/28 03:38:25;;;;;;;9.40;4.43;;;;;;;16.71;57.53;100454.44;5048941;28;20476;-66
2023/05/28 03:40:51;;;;;;;7.53;3.83;;;;;;;16.67;57.77;100455.81;5049042;28;20036;-66
2023/05/28 03:43:16;;;;;;;7.50;4.47;;;;;;;16.68;58.12;100458.34;5063984;28;20024;-66
2023/05/28 03:45:41;;;;;;;7.75;3.67;;;;;;;16.69;57.95;100457.31;5049120;28;20123;-66
2023/05/28 03:48:07;;;;;;;10.40;3.67;;;;;;;16.71;58.16;100462.56;5048686;28;20033;-66
2023/05/28 03:50:32;;;;;;;9.25;4.60;;;;;;;16.70;58.08;100459.00;5048965;28;20033;-66
2023/05/28 03:52:58;;;;;;;9.95;4.32;;;;;;;16.75;58.07;100466.63;5051659;28;20571;-66
2023/05/28 03:55:23;;;;;;;11.38;4.20;;;;;;;16.66;57.88;100452.25;5052589;28;20481;-66
2023/05/28 03:57:49;;;;;;;11.80;3.92;;;;;;;16.75;58.27;100461.19;5052536;28;20036;-66
2023/05/28 04:00:15;;;;;;;10.07;4.50;;;;;;;16.74;58.30;100465.78;5052116;28;20057;-66
2023/05/28 04:02:43;;;;;;;9.75;4.03;;;;;;;16.73;58.32;100449.72;5052412;28;20484;-68
2023/05/28 04:05:09;;;;;;;9.75;4.20;;;;;;;16.87;58.64;100467.97;5051959;28;20045;-66
2023/05/28 04:07:35;;;;;;;8.10;3.85;;;;;;;16.86;58.47;100463.56;5052224;28;20025;-66
2023/05/28 04:10:00;;;;;;;9.35;4.22;;;;;;;16.90;58.22;100454.09;5059707;28;20027;-66
2023/05/28 04:12:26;;;;;;;7.85;4.28;;;;;;;16.96;58.29;100466.94;5069100;28;20499;-66
2023/05/28 04:14:51;;;;;;;9.98;4.13;;;;;;;17.00;58.52;100469.16;5070306;28;20502;-66
2023/05/28 04:17:18;;;;;;;12.00;4.07;;;;;;;17.02;58.10;100472.50;5065914;28;20384;-66
2023/05/28 04:19:44;;;;;;;8.70;4.20;;;;;;;16.95;58.11;100457.09;5061769;28;20031;-66
2023/05/28 04:22:09;;;;;;;8.65;4.45;;;;;;;17.01;58.28;100484.38;5062058;28;20107;-66
2023/05/28 04:24:35;;;;;;;11.63;4.78;;;;;;;16.94;58.18;100455.41;5060543;28;20538;-66
2023/05/28 04:27:00;;;;;;;7.40;4.30;;;;;;;17.07;58.30;100477.41;5060840;28;20115;-66
2023/05/28 04:29:29;;;;;;;8.60;3.70;;;;;;;17.09;58.67;100475.41;5060885;28;20029;-66
2023/05/28 04:31:57;;;;;;;10.35;4.03;;;;;;;17.01;58.33;100453.72;5059572;28;20021;-66
2023/05/28 04:34:24;;;;;;;8.40;3.78;;;;;;;17.15;58.66;100477.41;5059769;28;20403;-66
2023/05/28 04:36:51;;;;;;;9.50;4.40;;;;;;;17.14;58.22;100470.28;5058731;28;20028;-66
2023/05/28 04:39:21;;;;;;;13.02;4.15;;;;;;;17.21;58.28;100480.25;5059895;28;20115;-67
2023/05/28 04:41:46;;;;;;;6.82;4.05;;;;;;;17.18;57.87;100477.03;5058857;28;20047;-67
2023/05/28 04:44:15;;;;;;;10.73;3.65;;;;;;;17.20;57.98;100484.00;5059462;28;20592;-67
2023/05/28 04:46:43;;;;;;;5.18;3.45;;;;;;;17.19;57.74;100468.75;5059235;28;20097;-67
2023/05/28 04:49:10;;;;;;;8.63;4.32;;;;;;;17.28;58.15;100483.16;5067390;28;20024;-67
2023/05/28 04:51:37;;;;;;;10.40;3.95;;;;;;;17.30;58.10;100471.09;5070167;28;20025;-66
2023/05/28 04:54:02;;;;;;;12.20;4.60;;;;;;;17.36;58.23;100467.69;5069802;28;20039;-67
2023/05/28 04:56:28;;;;;;;12.20;4.43;;;;;;;17.33;58.16;100469.91;5070158;28;20025;-67
2023/05/28 04:58:54;;;;;;;11.55;4.80;;;;;;;17.38;57.77;100460.22;5069901;28;20027;-66
2023/05/28 05:01:20;;;;;;;13.50;3.67;;;;;;;17.47;57.92;100472.75;5070376;28;20738;-67
2023/05/28 05:03:45;;;;;;;7.25;3.53;;;;;;;17.50;57.62;100474.28;5069850;28;20044;-67
2023/05/28 05:06:11;;;;;;;10.55;4.03;;;;;;;17.54;57.63;100479.19;5067949;28;20029;-68
2023/05/28 05:08:36;;;;;;;10.60;4.10;;;;;;;17.58;57.55;100477.78;5067401;28;20468;-76
2023/05/28 05:11:02;;;;;;;9.40;3.50;;;;;;;17.61;57.74;100466.59;5067235;28;20521;-76
2023/05/28 05:13:27;;;;;;;10.90;4.03;;;;;;;17.67;57.62;100473.22;5061129;28;20483;-75
2023/05/28 05:15:53;;;;;;;11.00;3.92;;;;;;;17.62;57.19;100459.31;5069284;28;20020;-76
2023/05/28 05:18:18;;;;;;;12.93;4.78;;;;;;;17.74;56.77;100475.00;5071135;28;20020;-75
2023/05/28 05:20:44;;;;;;;10.07;3.97;;;;;;;17.79;56.72;100474.50;5076979;28;20036;-75
2023/05/28 05:23:09;;;;;;;12.68;4.10;;;;;;;17.81;56.32;100469.75;5073246;28;20016;-75
2023/05/28 05:25:35;;;;;;;11.10;4.00;;;;;;;17.84;56.42;100477.53;5074184;28;20059;-76
2023/05/28 05:28:00;;;;;;;14.07;3.88;;;;;;;17.87;56.49;100467.16;5074342;28;20031;-76
2023/05/28 05:30:25;;;;;;;11.48;4.22;;;;;;;17.91;56.21;100478.50;5073848;28;20106;-75
2023/05/28 05:32:51;;;;;;;10.63;4.53;;;;;;;17.94;56.45;100486.28;5070827;28;20028;-67
2023/05/28 05:35:16;;;;;;;9.75;4.35;;;;;;;17.97;56.13;100477.81;5068250;28;20112;-67
2023/05/28 05:37:42;;;;;;;8.68;4.15;;;;;;;17.98;56.42;100471.34;5068830;28;20025;-67
2023/05/28 05:40:09;;;;;;;11.48;3.88;;;;;;;18.01;56.06;100473.69;5069176;28;20089;-67
2023/05/28 05:42:35;;;;;;;8.27;4.00;;;;;;;18.06;55.81;100479.44;4719024;28;9999805;-67
2023/05/28 05:45:00;;;;;;;11.13;4.15;;;;;;;18.10;55.83;100475.34;5070077;28;20075;-67
2023/05/28 05:47:25;;;;;;;9.57;4.22;;;;;;;18.13;56.11;100466.84;5063058;28;20119;-67
2023/05/28 05:49:51;;;;;;;10.65;4.25;;;;;;;18.21;55.84;100465.97;5064819;28;20031;-66
2023/05/28 05:52:16;;;;;;;10.43;3.85;;;;;;;18.21;55.43;100460.53;5066337;28;20051;-67
2023/05/28 05:54:42;;;;;;;9.20;4.30;;;;;;;18.22;55.62;100452.19;5065852;28;20028;-66
2023/05/28 05:57:08;;;;;;;12.90;4.15;;;;;;;18.32;55.50;100449.22;5066079;28;20588;-66
2023/05/28 05:59:34;;;;;;;7.53;3.58;;;;;;;18.41;55.80;100454.44;5066146;28;20529;-66
2023/05/28 06:02:00;;;;;;;10.40;4.00;;;;;;;18.51;55.68;100457.75;5066111;28;20029;-67
2023/05/28 06:04:31;;;;;;;9.07;3.65;;;;;;;18.50;54.71;100445.22;5065763;28;20045;-66
2023/05/28 06:06:57;;;;;;;11.35;4.00;;;;;;;18.66;55.18;100457.81;5065685;28;20391;-66
2023/05/28 06:09:23;;;;;;;12.00;3.80;;;;;;;18.57;54.56;100438.00;5066139;28;20068;-66
2023/05/28 06:11:48;;;;;;;11.50;3.90;;;;;;;18.66;54.51;100439.63;5066584;28;20028;-66
2023/05/28 06:14:15;;;;;;;10.13;3.97;;;;;;;18.77;54.39;100457.38;5065554;28;20041;-66
2023/05/28 06:16:40;;;;;;;8.30;4.28;;;;;;;18.81;54.36;100447.81;5065934;28;20021;-66
2023/05/28 06:19:07;;;;;;;8.32;4.07;;;;;;;18.82;54.19;100442.22;5064907;28;20731;-66
2023/05/28 06:21:32;;;;;;;14.02;4.47;;;;;;;18.96;54.72;100467.75;5074408;28;20028;-66
2023/05/28 06:23:58;;;;;;;8.23;3.45;;;;;;;18.99;54.32;100465.47;5085706;28;20031;-66
2023/05/28 06:26:23;;;;;;;7.22;3.78;;;;;;;19.03;54.24;100453.22;5086409;28;20031;-66
2023/05/28 06:28:49;;;;;;;11.60;3.60;;;;;;;19.07;54.30;100461.84;5073618;28;20038;-66
2023/05/28 06:31:14;;;;;;;10.73;3.55;;;;;;;19.11;54.36;100463.16;5065475;28;20032;-70
2023/05/28 06:33:40;;;;;;;8.80;3.80;;;;;;;19.20;54.00;100459.31;5064397;28;20024;-68
2023/05/28 06:36:06;;;;;;;11.88;4.10;;;;;;;19.26;54.13;100467.63;5065492;28;20040;-68
2023/05/28 06:38:32;;;;;;;12.38;3.88;;;;;;;19.33;54.33;100463.13;5065714;28;20020;-69
2023/05/28 06:40:57;;;;;;;7.68;4.03;;;;;;;19.39;54.26;100467.81;5065067;28;20020;-68
2023/05/28 06:43:23;;;;;;;9.45;3.97;;;;;;;19.47;54.79;100462.25;5065695;28;20048;-68
2023/05/28 06:45:48;;;;;;;7.43;3.72;;;;;;;19.60;54.77;100467.03;5065261;28;20033;-68
2023/05/28 06:48:14;;;;;;;6.95;3.90;;;;;;;19.72;54.13;100468.25;5063833;28;20036;-68
2023/05/28 06:50:39;;;;;;;13.07;4.20;;;;;;;19.68;52.97;100450.63;5066560;28;20070;-68
2023/05/28 06:53:04;;;;;;;8.63;3.83;;;;;;;19.88;52.89;100473.47;5066425;28;20020;-68
2023/05/28 06:55:30;;;;;;;17.95;4.38;;;;;;;19.92;52.89;100472.06;5066635;28;20020;-68
2023/05/28 06:57:55;;;;;;;10.60;4.18;;;;;;;19.98;52.83;100469.44;5065826;28;20013;-68
2023/05/28 07:00:21;;;;;;;10.52;4.00;;;;;;;20.04;53.08;100463.22;5066149;28;20077;-70
2023/05/28 07:02:47;;;;;;;8.50;3.60;;;;;;;20.14;52.97;100469.25;5067110;28;20044;-70
2023/05/28 07:05:12;;;;;;;10.10;3.63;;;;;;;20.27;53.21;100468.53;5066393;28;20102;-72
2023/05/28 07:07:38;;;;;;;16.48;5.97;;;;;;;20.38;53.08;100468.03;5066811;28;20059;-68
2023/05/28 07:10:04;;;;;;;8.70;3.90;;;;;;;20.46;52.61;100453.41;5065382;28;20111;-69
2023/05/28 07:12:30;;;;;;;6.20;3.35;;;;;;;20.65;52.82;100463.66;5065153;28;20110;-64
2023/05/28 07:14:55;;;;;;;9.13;4.15;;;;;;;20.75;52.40;100469.63;5066670;28;20475;-68
2023/05/28 07:17:21;;;;;;;8.38;3.78;;;;;;;20.73;51.85;100460.81;5066254;28;20044;-69
2023/05/28 07:19:47;;;;;;;8.30;3.95;;;;;;;20.80;51.88;100472.63;5066979;28;20028;-66
2023/05/28 07:22:12;;;;;;;6.50;3.45;;;;;;;20.80;51.84;100457.09;5065527;28;20423;-68
2023/05/28 07:24:38;;;;;;;9.32;4.50;;;;;;;20.88;51.41;100470.59;5066764;28;20037;-68
2023/05/28 07:27:03;;;;;;;9.13;4.93;;;;;;;20.97;51.78;100465.88;5068551;28;20089;-69
2023/05/28 07:29:29;;;;;;;8.00;4.45;;;;;;;21.14;51.76;100472.69;5063455;28;20025;-69
2023/05/28 07:31:55;;;;;;;9.30;3.97;;;;;;;21.20;51.35;100467.31;5070566;28;20089;-67
2023/05/28 07:34:21;;;;;;;7.40;4.07;;;;;;;21.20;51.76;100453.66;5070111;28;20036;-66
2023/05/28 07:36:46;;;;;;;9.27;3.90;;;;;;;21.33;51.65;100466.53;5064342;28;20027;-66
2023/05/28 07:39:11;;;;;;;7.72;4.00;;;;;;;21.34;51.09;100460.88;5069210;28;20039;-66
2023/05/28 07:41:37;;;;;;;8.35;4.47;;;;;;;21.35;51.06;100457.09;5071102;28;20032;-66
2023/05/28 07:44:03;;;;;;;8.40;4.38;;;;;;;21.35;51.03;100446.19;5090103;28;20040;-66
2023/05/28 07:46:29;;;;;;;10.07;4.20;;;;;;;21.44;51.00;100460.53;5090333;28;20837;-66
2023/05/28 07:48:54;;;;;;;12.18;3.95;;;;;;;21.49;51.27;100449.84;5073933;28;20060;-67
2023/05/28 07:51:20;;;;;;;6.72;3.47;;;;;;;21.57;51.03;100449.69;5070813;28;20119;-66
2023/05/28 07:53:46;;;;;;;8.45;4.57;;;;;;;21.56;50.08;100450.72;5078006;28;20078;-66
2023/05/28 07:56:11;;;;;;;7.20;3.67;;;;;;;21.44;50.26;100439.53;5070048;28;20020;-67
2023/05/28 07:58:37;;;;;;;12.10;4.50;;;;;;;21.56;50.30;100443.38;5073867;28;20548;-66
2023/05/28 08:01:08;;;;;;;10.25;5.07;;;;;;;21.57;50.52;100436.88;5072832;28;20480;-67
2023/05/28 08:03:34;;;;;;;14.82;4.70;;;;;;;21.56;50.29;100437.06;5072965;28;20784;-67
2023/05/28 08:06:00;;;;;;;11.68;4.45;;;;;;;21.60;50.23;100446.56;5081208;28;20116;-66
2023/05/28 08:08:26;;;;;;;8.07;4.00;;;;;;;21.65;50.15;100444.91;5069836;28;20061;-66
2023/05/28 08:10:51;;;;;;;8.63;4.10;;;;;;;21.67;50.33;100452.91;5077695;28;20788;-67
2023/05/28 08:13:16;;;;;;;9.48;4.10;;;;;;;21.72;50.67;100447.66;5076475;28;20036;-67
2023/05/28 08:15:42;;;;;;;7.65;4.18;;;;;;;21.80;50.72;100453.81;5078808;28;20100;-67
2023/05/28 08:18:07;;;;;;;8.20;4.15;;;;;;;21.80;50.62;100448.34;5079131;28;20020;-67
2023/05/28 08:20:33;;;;;;;8.20;4.22;;;;;;;21.80;50.36;100426.50;5076693;28;20028;-66
2023/05/28 08:22:58;;;;;;;12.20;4.80;;;;;;;21.94;50.11;100438.31;5077092;28;20433;-66
2023/05/28 08:25:23;;;;;;;9.80;4.18;;;;;;;21.96;49.74;100426.13;5081666;28;20033;-66
2023/05/28 08:27:49;;;;;;;8.95;4.80;;;;;;;22.06;50.08;100436.69;5070486;28;20104;-66
2023/05/28 08:30:14;;;;;;;10.63;5.15;;;;;;;22.16;49.37;100437.97;5072513;28;20036;-66
2023/05/28 08:32:40;;;;;;;6.63;4.30;;;;;;;22.10;49.17;100418.84;5084985;28;20110;-66
2023/05/28 08:35:06;;;;;;;10.02;4.88;;;;;;;22.31;49.57;100435.91;5073610;28;20057;-66
2023/05/28 08:37:31;;;;;;;13.52;4.43;;;;;;;22.38;49.83;100439.47;5077510;28;20406;-66
2023/05/28 08:39:57;;;;;;;9.88;4.50;;;;;;;22.44;49.30;100435.06;5078323;28;20038;-66
2023/05/28 08:42:22;;;;;;;10.25;4.88;;;;;;;22.38;48.80;100419.53;5075544;28;20482;-67
2023/05/28 08:44:48;;;;;;;10.25;5.45;;;;;;;22.47;48.80;100428.38;5084609;28;20142;-66
2023/05/28 08:47:14;;;;;;;10.32;5.30;;;;;;;22.44;49.07;100417.84;5084218;28;20103;-66
2023/05/28 08:49:47;;;;;;;6.85;4.63;;;;;;;22.54;49.15;100432.84;5081895;28;20123;-66
2023/05/28 08:52:15;;;;;;;7.85;4.38;;;;;;;22.60;49.15;100429.22;5081163;28;20047;-67
2023/05/28 08:54:41;;;;;;;12.90;4.78;;;;;;;22.66;49.24;100425.66;5084526;28;20103;-66
2023/05/28 08:57:07;;;;;;;8.32;4.93;;;;;;;22.70;49.33;100421.44;5083421;28;20107;-66
2023/05/28 08:59:32;;;;;;;11.90;5.40;;;;;;;22.77;48.93;100421.47;5069136;28;20074;-66
2023/05/28 09:01:58;;;;;;;9.13;4.80;;;;;;;22.79;48.79;100425.66;5082531;28;20044;-67
2023/05/28 09:04:23;;;;;;;7.18;4.80;;;;;;;22.79;48.27;100408.44;5083927;28;20024;-67
2023/05/28 09:06:52;;;;;;;10.05;4.68;;;;;;;22.88;48.00;100412.63;5074936;28;20021;-67
2023/05/28 09:09:18;;;;;;;7.32;4.28;;;;;;;22.99;48.54;100404.59;5080424;28;20127;-67
2023/05/28 09:11:43;;;;;;;15.45;5.43;;;;;;;23.01;49.05;100410.72;5077786;28;20348;-67
2023/05/28 09:14:10;;;;;;;12.02;5.50;;;;;;;23.12;48.75;100415.53;5067173;28;20111;-66
2023/05/28 09:16:39;;;;;;;13.30;5.43;;;;;;;23.07;48.11;100409.88;5073015;28;20051;-67
2023/05/28 09:19:06;;;;;;;8.07;4.70;;;;;;;23.07;48.20;100407.13;5067509;28;20032;-66
2023/05/28 09:21:36;;;;;;;11.70;5.40;;;;;;;23.12;48.18;100399.09;5071276;28;20048;-67
2023/05/28 09:24:02;;;;;;;7.97;4.85;;;;;;;23.09;48.04;100399.56;5071170;28;20035;-67
2023/05/28 09:26:31;;;;;;;8.13;5.20;;;;;;;23.09;47.70;100388.63;5073489;28;20036;-66
2023/05/28 09:28:57;;;;;;;8.07;4.93;;;;;;;23.14;48.18;100394.28;5075872;28;20020;-66
2023/05/28 09:31:32;;;;;;;9.38;5.25;;;;;;;23.21;47.97;100400.56;5072078;28;20043;-66
2023/05/28 09:34:04;;;;;;;15.05;4.85;;;;;;;23.17;48.20;100390.25;5076873;28;20027;-67
2023/05/28 09:36:30;;;;;;;8.82;4.50;;;;;;;23.26;48.49;100394.50;5071630;28;20178;-66
2023/05/28 09:38:56;;;;;;;7.03;4.35;;;;;;;23.29;48.51;100388.59;5074448;28;20099;-67
2023/05/28 09:41:33;;;;;;;12.02;5.53;;;;;;;23.40;48.09;100385.19;5071300;28;20028;-67
2023/05/28 09:44:01;;;;;;;10.15;5.15;;;;;;;23.44;48.07;100381.78;5073323;28;20406;-67
2023/05/28 09:46:31;;;;;;;8.75;5.28;;;;;;;23.50;47.96;100380.94;5080308;28;20115;-66
2023/05/28 09:48:58;;;;;;;7.28;4.90;;;;;;;23.57;47.80;100376.25;5068598;28;20021;-67
2023/05/28 09:51:31;;;;;;;8.05;4.95;;;;;;;23.69;47.16;100366.31;5070161;28;20043;-67
2023/05/28 09:54:01;;;;;;;9.00;5.53;;;;;;;23.78;46.96;100377.84;5075393;28;20111;-67
2023/05/28 09:56:29;;;;;;;11.55;5.80;;;;;;;23.81;47.41;100374.69;5074988;28;20268;-66
2023/05/28 09:58:57;;;;;;;8.68;5.93;;;;;;;23.83;47.20;100380.81;5070774;28;20130;-67
2023/05/28 10:01:26;;;;;;;9.95;5.80;;;;;;;23.84;46.93;100372.38;5073617;28;20164;-66
2023/05/28 10:04:04;;;;;;;11.15;5.65;;;;;;;23.86;46.96;100374.88;5072899;28;20039;-67
2023/05/28 10:06:31;;;;;;;7.40;5.38;;;;;;;23.89;47.05;100369.78;5076910;28;20037;-67
2023/05/28 10:08:59;;;;;;;8.55;5.35;;;;;;;23.88;46.96;100368.13;5069156;28;20674;-66
2023/05/28 10:11:27;;;;;;;12.05;5.90;;;;;;;23.96;47.34;100369.78;5072736;28;20107;-67
2023/05/28 10:13:54;;;;;;;8.93;6.07;;;;;;;23.99;46.89;100366.63;5072173;28;20449;-68
2023/05/28 10:16:20;;;;;;;8.48;6.15;;;;;;;24.04;45.98;100370.38;5071001;28;20035;-67
2023/05/28 10:18:46;;;;;;;12.30;6.80;;;;;;;24.07;45.82;100367.19;5074606;28;20414;-66
2023/05/28 10:21:15;;;;;;;13.32;8.15;;;;;;;24.16;45.65;100376.00;5066566;28;20024;-67
2023/05/28 10:23:42;;;;;;;8.95;6.50;;;;;;;24.22;45.24;100370.44;5083048;28;20137;-67
2023/05/28 10:26:08;;;;;;;15.95;6.88;;;;;;;24.27;45.59;100367.03;5080549;28;20060;-67
2023/05/28 10:28:33;;;;;;;10.90;6.57;;;;;;;24.30;45.99;100367.47;5082455;28;20020;-67
2023/05/28 10:31:04;;;;;;;7.60;6.55;;;;;;;24.31;45.44;100355.41;5075074;28;20046;-67
2023/05/28 10:33:30;;;;;;;8.80;6.68;;;;;;;24.37;45.85;100361.91;5084404;28;20076;-67
2023/05/28 10:35:58;;;;;;;13.10;6.28;;;;;;;24.40;45.92;100351.34;5074927;28;20028;-66
2023/05/28 10:38:24;;;;;;;9.82;6.05;;;;;;;24.45;45.50;100356.16;5074635;28;20699;-67
2023/05/28 10:40:50;;;;;;;10.43;7.20;;;;;;;24.45;46.04;100348.75;5072009;28;20040;-67
2023/05/28 10:43:37;;;;;;;9.90;6.30;;;;;;;24.44;45.99;100354.50;5071174;28;20079;-67
2023/05/28 10:46:08;;;;;;;19.38;8.13;;;;;;;24.42;45.42;100346.50;5074429;28;20085;-66
2023/05/28 10:48:38;;;;;;;9.55;6.95;;;;;;;24.36;44.42;100328.19;5075961;28;20027;-66
2023/05/28 10:51:04;;;;;;;9.77;7.43;;;;;;;24.33;45.04;100325.88;5074832;28;20023;-67
2023/05/28 10:53:30;;;;;;;13.90;7.07;;;;;;;24.37;45.79;100327.09;5069086;28;20098;-67
2023/05/28 10:55:56;;;;;;;9.10;7.35;;;;;;;24.45;46.00;100329.56;5074500;28;20044;-66
2023/05/28 10:58:27;;;;;;;10.50;6.68;;;;;;;24.40;45.83;100328.56;5073556;28;20058;-67
2023/05/28 11:01:20;;;;;;;12.18;7.15;;;;;;;24.42;46.41;100332.78;5079402;28;20131;-67
2023/05/28 11:03:55;;;;;;;12.65;6.88;;;;;;;24.39;45.92;100321.41;5078832;28;20115;-67
2023/05/28 11:06:20;;;;;;;10.23;6.30;;;;;;;24.42;45.71;100320.97;5072918;28;20514;-67
2023/05/28 11:08:50;;;;;;;7.38;6.03;;;;;;;24.54;45.31;100323.81;5070065;28;20137;-67
2023/05/28 11:11:17;;;;;;;9.88;6.80;;;;;;;24.61;45.13;100327.31;5070619;28;20075;-67
2023/05/28 11:13:44;;;;;;;8.52;6.07;;;;;;;24.64;45.31;100319.53;5069227;28;20101;-67
2023/05/28 11:16:11;;;;;;;10.35;6.38;;;;;;;24.65;45.37;100318.47;5071333;28;20490;-66
2023/05/28 11:18:37;;;;;;;9.60;6.30;;;;;;;24.67;45.35;100312.75;5071392;28;20077;-66